Airfield :
LOGIN :

Register | Disclaimer

   EN    FR    IT 

 










Legend :    VFR   Marginal VFR   IFR   Intensive IFR   Very Intensive IFR
Visi :
Ceiling :
>= 8 km
>= 3000ft
5 to 8 km
1000 to 3000 ft
1500m to 5 km
500 to 1000 ft
800 to 1500m
200 to 500 ft
< 800m
< 200 ft
Symbols :   Thunderstorms  Fog  Heavy snow  Heavy precipitations  Wind > 20 kt
SIGMETs :     Misc.  Thunderstorms  Icing  Turbulence  Mountain Waves  Volcanic Ashes







- Airport Elevation : 355 ft
- IATA code : VBS


LIPO - Montichiari - Brescia

CURRENT METAR :
  • 160450Z 09005KT 5000 BR SCT050 01/01 Q1003

EXPIRED METARs :
  • 160350Z 08003KT 5000 BR NSC 01/01 Q1002
  • 160250Z 15008KT 0800 R32/P2000 FZFG NSC M00/M00 Q1001

TAF TAF LIPO
Valid from the 16 at 00:00 until the 17 at 00:00 UTC


152300Z 1600/1624 29006KT 2500 BR BKN010
TEMPO 1518/1606 0400 FG
No reported NOTAMs for that airfield.
2 SIGMETs reported for the Milano FIR (LIMM) :
 
Embedded thunderstorms
LIMM SIGMET 2 VALID 160440/160640 LIIP
LIMM MILANO FIR EMBD TS OBS WI N4334 E01018 - N4413 E00927 - N4531 E01048 - N4614 E01308 - N4539 E01340 - N4520 E01256 - N4359 E01333 - N4334 E01018 TOP FL250 STNR NC=
Embedded thunderstorms
LIMM SIGMET 1 VALID 160040/160440 LIIP
LIMM MILANO FIR EMBD TS OBS WI N4334 E01018 - N4413 E00927 - N4531 E01048 - N4614 E01308 - N4539 E01340 - N4520 E01256 - N4359 E01333 - N4334 E01018 TOP FL250 STNR NC=



MET'MAP, your aeronautical weather chart ! - Copyright ORBIFLY December 2007 - Disclaimer

ORBIFLY MET'MAP TEAM :

Programming & Development : Alexandra Zaïnal
Concept & Development : Baudouin d'Aumeries
Co-Development & Prog : Marc-Olivier Méhu
Technical & hardware support : Manuel Goepfert

Contact : metmap@orbifly.com




SOURCES & CREDITS :

   NOAA